createdAt,value
2018-03-20T00:01:27.240Z,101258.64
2018-03-20T00:03:53.391Z,101251.62
2018-03-20T00:06:19.604Z,101248.53
2018-03-20T00:08:46.689Z,101253.37
2018-03-20T00:11:12.844Z,101248.55
2018-03-20T00:13:39.042Z,101251.65
2018-03-20T00:16:05.238Z,101242.94
2018-03-20T00:18:31.436Z,101245.12
2018-03-20T00:20:57.606Z,101240.78
2018-03-20T00:23:23.773Z,101238.16
2018-03-20T00:25:49.984Z,101229.38
2018-03-20T00:28:16.434Z,101227.66
2018-03-20T00:30:42.608Z,101225.91
2018-03-20T00:33:08.847Z,101227.22
2018-03-20T00:35:35.004Z,101221.50
2018-03-20T00:38:01.195Z,101218.91
2018-03-20T00:40:27.371Z,101211.89
2018-03-20T00:42:53.900Z,101212.73
2018-03-20T00:45:20.342Z,101215.80
2018-03-20T00:47:46.537Z,101205.77
2018-03-20T00:50:12.738Z,101198.77
2018-03-20T00:52:38.903Z,101197.53
2018-03-20T00:55:05.080Z,101189.69
2018-03-20T00:57:31.580Z,101193.18
2018-03-20T00:59:57.793Z,101197.55
2018-03-20T01:02:24.000Z,101194.08
2018-03-20T01:04:50.166Z,101196.27
2018-03-20T01:07:16.392Z,101197.55
2018-03-20T01:09:42.926Z,101194.95
2018-03-20T01:12:09.075Z,101193.64
2018-03-20T01:14:35.282Z,101192.30
2018-03-20T01:17:01.423Z,101195.34
2018-03-20T01:19:27.607Z,101185.30
2018-03-20T01:21:53.811Z,101186.62
2018-03-20T01:24:19.951Z,101189.22
2018-03-20T01:26:46.119Z,101183.56
2018-03-20T01:29:12.309Z,101184.48
2018-03-20T01:31:38.456Z,101179.70
2018-03-20T01:34:04.627Z,101177.95
2018-03-20T01:36:30.795Z,101175.68
2018-03-20T01:38:57.018Z,101174.42
2018-03-20T01:41:23.195Z,101175.79
2018-03-20T01:43:49.362Z,101166.63
2018-03-20T01:46:15.550Z,101168.42
2018-03-20T01:48:41.715Z,101165.80
2018-03-20T01:51:07.934Z,101165.36
2018-03-20T01:53:34.106Z,101166.68
2018-03-20T01:56:00.322Z,101165.37
2018-03-20T01:58:26.463Z,101171.92
2018-03-20T02:00:52.614Z,101160.17
2018-03-20T02:03:18.796Z,101164.08
2018-03-20T02:05:44.981Z,101163.19
2018-03-20T02:08:11.173Z,101162.30
2018-03-20T02:10:37.607Z,101157.93
2018-03-20T02:13:03.811Z,101157.52
2018-03-20T02:15:30.006Z,101159.27
2018-03-20T02:17:56.187Z,101153.62
2018-03-20T02:20:22.383Z,101157.95
2018-03-20T02:22:48.630Z,101161.02
2018-03-20T02:25:14.777Z,101164.08
2018-03-20T02:27:41.035Z,101156.23
2018-03-20T02:30:07.207Z,101161.43
2018-03-20T02:32:33.392Z,101163.64
2018-03-20T02:34:59.579Z,101160.99
2018-03-20T02:37:25.802Z,101167.58
2018-03-20T02:39:51.950Z,101161.02
2018-03-20T02:42:18.113Z,101165.37
2018-03-20T02:44:44.339Z,101167.11
2018-03-20T02:47:10.514Z,101173.23
2018-03-20T02:49:36.687Z,101172.80
2018-03-20T02:52:02.884Z,101172.83
2018-03-20T02:54:29.101Z,101171.98
2018-03-20T02:56:55.267Z,101178.55
2018-03-20T02:59:21.760Z,101182.86
2018-03-20T03:01:47.958Z,101187.73
2018-03-20T03:04:14.117Z,101182.98
2018-03-20T03:06:40.291Z,101198.70
2018-03-20T03:09:06.496Z,101190.39
2018-03-20T03:11:32.898Z,101201.33
2018-03-20T03:13:59.086Z,101201.73
2018-03-20T03:16:25.282Z,101208.77
2018-03-20T03:18:51.454Z,101208.74
2018-03-20T03:21:17.920Z,101205.67
2018-03-20T03:23:44.086Z,101214.02
2018-03-20T03:26:10.256Z,101213.52
2018-03-20T03:28:36.477Z,101214.39
2018-03-20T03:31:02.928Z,101227.11
2018-03-20T03:33:29.362Z,101226.67
2018-03-20T03:35:55.653Z,101234.56
2018-03-20T03:38:21.799Z,101242.84
2018-03-20T03:40:47.962Z,101243.70
2018-03-20T03:43:14.172Z,101251.56
2018-03-20T03:45:40.629Z,101250.26
2018-03-20T03:48:07.142Z,101253.73
2018-03-20T03:50:33.394Z,101248.00
2018-03-20T03:52:59.579Z,101256.77
2018-03-20T03:55:25.731Z,101262.14
2018-03-20T03:57:51.926Z,101277.42
2018-03-20T04:00:18.109Z,101276.95
2018-03-20T04:02:44.314Z,101285.80
2018-03-20T04:05:10.468Z,101288.46
2018-03-20T04:07:36.655Z,101295.89
2018-03-20T04:10:02.897Z,101298.97
2018-03-20T04:12:29.320Z,101306.34
2018-03-20T04:14:55.492Z,101315.16
2018-03-20T04:17:21.634Z,101311.20
2018-03-20T04:19:47.817Z,101319.51
2018-03-20T04:22:14.334Z,101323.03
2018-03-20T04:24:40.485Z,101321.73
2018-03-20T04:27:06.643Z,101329.59
2018-03-20T04:29:33.119Z,101339.67
2018-03-20T04:31:59.658Z,101336.61
2018-03-20T04:34:25.847Z,101337.90
2018-03-20T04:36:52.018Z,101343.19
2018-03-20T04:39:18.179Z,101347.14
2018-03-20T04:41:44.673Z,101354.98
2018-03-20T04:44:10.836Z,101361.56
2018-03-20T04:46:37.266Z,101365.50
2018-03-20T04:49:03.761Z,101369.89
2018-03-20T04:51:29.941Z,101376.04
2018-03-20T04:53:56.174Z,101380.41
2018-03-20T04:56:22.349Z,101387.02
2018-03-20T04:58:48.779Z,101386.59
2018-03-20T05:01:15.030Z,101387.48
2018-03-20T05:03:41.199Z,101394.50
2018-03-20T05:06:07.366Z,101396.27
2018-03-20T05:08:33.570Z,101395.81
2018-03-20T05:10:59.714Z,101398.45
2018-03-20T05:13:25.867Z,101393.66
2018-03-20T05:15:52.105Z,101404.15
2018-03-20T05:18:18.553Z,101408.94
2018-03-20T05:20:50.770Z,101414.09
2018-03-20T05:26:13.882Z,101425.89
2018-03-20T05:28:40.083Z,101434.64
2018-03-20T05:31:06.306Z,101442.48
2018-03-20T05:33:32.513Z,101439.03
2018-03-20T05:35:58.758Z,101446.45
2018-03-20T05:38:25.022Z,101450.39
2018-03-20T05:40:51.213Z,101454.77
2018-03-20T05:43:17.427Z,101449.98
2018-03-20T05:45:43.666Z,101459.61
2018-03-20T05:51:15.846Z,101467.49
2018-03-20T05:53:42.082Z,101475.91
2018-03-20T05:56:08.235Z,101480.78
2018-03-20T05:58:34.469Z,101480.87
2018-03-20T06:01:00.666Z,101495.33
2018-03-20T06:03:27.054Z,101494.45
2018-03-20T06:05:53.233Z,101498.69
2018-03-20T06:08:19.767Z,101497.80
2018-03-20T06:10:45.960Z,101508.72
2018-03-20T06:13:12.127Z,101519.55
2018-03-20T06:15:38.353Z,101527.34
2018-03-20T06:18:04.488Z,101524.22
2018-03-20T06:20:30.628Z,101534.65
2018-03-20T06:22:56.823Z,101535.89
2018-03-20T06:25:23.024Z,101541.97
2018-03-20T06:27:49.259Z,101551.05
2018-03-20T06:30:15.407Z,101553.66
2018-03-20T06:32:41.805Z,101559.70
2018-03-20T06:35:07.981Z,101565.37
2018-03-20T06:37:34.142Z,101573.19
2018-03-20T06:40:00.357Z,101572.17
2018-03-20T06:42:26.858Z,101584.45
2018-03-20T06:44:53.394Z,101588.80
2018-03-20T06:47:19.562Z,101596.27
2018-03-20T06:49:45.730Z,101598.45
2018-03-20T06:52:11.887Z,101597.19
2018-03-20T06:54:38.109Z,101611.56
2018-03-20T06:57:04.324Z,101615.45
2018-03-20T06:59:30.531Z,101615.44
2018-03-20T07:01:57.113Z,101625.48
2018-03-20T07:04:23.322Z,101625.50
2018-03-20T07:06:49.469Z,101629.48
2018-03-20T07:09:15.640Z,101637.82
2018-03-20T07:11:41.799Z,101640.92
2018-03-20T07:14:08.012Z,101649.27
2018-03-20T07:16:34.159Z,101650.56
2018-03-20T07:19:00.308Z,101653.20
2018-03-20T07:21:26.521Z,101654.91
2018-03-20T07:23:52.677Z,101655.78
2018-03-20T07:26:18.876Z,101654.88
2018-03-20T07:28:45.054Z,101660.09
2018-03-20T07:31:11.282Z,101665.73
2018-03-20T07:33:37.465Z,101670.06
2018-03-20T07:36:03.635Z,101668.70
2018-03-20T07:38:29.834Z,101672.17
2018-03-20T07:40:56.022Z,101683.53
2018-03-20T07:43:22.562Z,101683.95
2018-03-20T07:45:48.951Z,101690.94
2018-03-20T07:48:15.387Z,101691.31
2018-03-20T07:50:41.535Z,101704.87
2018-03-20T07:53:07.798Z,101703.92
2018-03-20T07:55:33.955Z,101707.94
2018-03-20T07:58:00.134Z,101710.59
2018-03-20T08:00:26.311Z,101720.67
2018-03-20T08:02:52.501Z,101718.05
2018-03-20T08:05:19.028Z,101726.38
2018-03-20T08:07:45.241Z,101735.98
2018-03-20T08:10:11.658Z,101737.77
2018-03-20T08:12:37.879Z,101737.37
2018-03-20T08:15:04.288Z,101738.66
2018-03-20T08:17:30.712Z,101739.99
2018-03-20T08:19:56.923Z,101739.13
2018-03-20T08:22:23.097Z,101750.06
2018-03-20T08:24:49.341Z,101755.28
2018-03-20T08:27:15.499Z,101757.48
2018-03-20T08:29:41.663Z,101766.20
2018-03-20T08:32:07.859Z,101773.61
2018-03-20T08:34:34.039Z,101782.36
2018-03-20T08:37:00.272Z,101777.08
2018-03-20T08:39:26.445Z,101785.82
2018-03-20T08:41:52.602Z,101790.62
2018-03-20T08:44:18.876Z,101791.47
2018-03-20T08:46:45.013Z,101797.15
2018-03-20T08:49:11.223Z,101806.33
2018-03-20T08:51:37.403Z,101811.13
2018-03-20T08:54:03.640Z,101810.66
2018-03-20T08:56:29.807Z,101816.34
2018-03-20T08:59:01.980Z,101818.55
2018-03-20T09:01:28.519Z,101821.17
2018-03-20T09:03:54.732Z,101836.94
2018-03-20T09:06:20.934Z,101839.97
2018-03-20T09:08:47.116Z,101845.23
2018-03-20T09:11:13.327Z,101843.45
2018-03-20T09:13:39.535Z,101855.71
2018-03-20T09:16:05.699Z,101857.89
2018-03-20T09:18:31.872Z,101862.25
2018-03-20T09:20:58.064Z,101866.64
2018-03-20T09:23:24.275Z,101874.07
2018-03-20T09:25:50.425Z,101872.34
2018-03-20T09:28:16.615Z,101878.88
2018-03-20T09:30:42.802Z,101885.02
2018-03-20T09:33:08.985Z,101887.20
2018-03-20T09:35:35.398Z,101887.66
2018-03-20T09:38:01.832Z,101904.73
2018-03-20T09:40:28.040Z,101909.10
2018-03-20T09:42:54.208Z,101909.52
2018-03-20T09:45:20.386Z,101907.75
2018-03-20T09:47:46.587Z,101920.39
2018-03-20T09:50:12.746Z,101921.71
2018-03-20T09:52:38.932Z,101925.59
2018-03-20T09:55:05.168Z,101929.97
2018-03-20T09:57:31.359Z,101935.66
2018-03-20T09:59:57.533Z,101944.84
2018-03-20T10:02:23.711Z,101943.95
2018-03-20T10:04:50.139Z,101954.02
2018-03-20T10:07:16.330Z,101948.27
2018-03-20T10:09:42.535Z,101953.09
2018-03-20T10:12:08.688Z,101954.80
2018-03-20T10:14:34.847Z,101970.61
2018-03-20T10:17:01.044Z,101974.11
2018-03-20T10:19:27.218Z,101987.20
2018-03-20T10:21:53.396Z,101990.28
2018-03-20T10:24:19.573Z,101994.69
2018-03-20T10:26:45.834Z,101990.33
2018-03-20T10:29:12.024Z,101991.59
2018-03-20T10:31:38.191Z,101991.61
2018-03-20T10:34:04.674Z,102002.12
2018-03-20T10:36:31.106Z,102002.09
2018-03-20T10:38:57.274Z,102005.12
2018-03-20T10:41:23.580Z,102007.31
2018-03-20T10:43:49.774Z,102008.61
2018-03-20T10:46:15.958Z,102015.61
2018-03-20T10:48:42.150Z,102006.39
2018-03-20T10:51:08.352Z,102018.18
2018-03-20T10:53:34.511Z,102008.06
2018-03-20T10:56:00.693Z,102014.53
2018-03-20T10:58:26.880Z,102020.67
2018-03-20T11:00:59.433Z,102023.75
2018-03-20T11:03:25.621Z,102024.64
2018-03-20T11:05:51.843Z,102032.08
2018-03-20T11:08:18.023Z,102034.66
2018-03-20T11:10:44.215Z,102032.02
2018-03-20T11:13:10.495Z,102041.69
2018-03-20T11:15:36.678Z,102032.86
2018-03-20T11:18:02.944Z,102037.16
2018-03-20T11:20:29.132Z,102041.91
2018-03-20T11:22:55.296Z,102042.30
2018-03-20T11:25:21.501Z,102047.53
2018-03-20T11:27:47.767Z,102046.58
2018-03-20T11:30:13.971Z,102055.73
2018-03-20T11:32:40.394Z,102049.51
2018-03-20T11:35:06.641Z,102059.16
2018-03-20T11:37:32.896Z,102064.83
2018-03-20T11:39:59.067Z,102066.12
2018-03-20T11:42:25.329Z,102074.00
2018-03-20T11:44:51.548Z,102071.75
2018-03-20T11:47:18.074Z,102080.03
2018-03-20T11:49:44.311Z,102087.90
2018-03-20T11:52:10.503Z,102083.47
2018-03-20T11:54:36.754Z,102089.08
2018-03-20T11:57:02.982Z,102083.73
2018-03-20T11:59:29.206Z,102085.45
2018-03-20T12:01:55.411Z,102090.25
2018-03-20T12:04:21.594Z,102100.78
2018-03-20T12:06:48.101Z,102099.87
2018-03-20T12:12:17.849Z,102105.04
2018-03-20T12:14:43.999Z,102101.95
2018-03-20T12:17:10.260Z,102101.52
2018-03-20T12:19:36.516Z,102098.81
2018-03-20T12:22:02.691Z,102105.82
2018-03-20T12:24:28.881Z,102114.55
2018-03-20T12:26:55.057Z,102123.31
2018-03-20T12:29:21.232Z,102121.54
2018-03-20T12:31:47.653Z,102136.88
2018-03-20T12:34:13.849Z,102139.48
2018-03-20T12:36:39.991Z,102135.08
2018-03-20T12:39:06.156Z,102147.38
2018-03-20T12:41:32.668Z,102144.70
2018-03-20T12:43:58.832Z,102153.05
2018-03-20T12:46:25.338Z,102157.39
2018-03-20T12:48:51.495Z,102162.19
2018-03-20T12:51:17.667Z,102160.86
2018-03-20T12:53:43.862Z,102156.43
2018-03-20T12:56:10.071Z,102168.69
2018-03-20T12:58:36.300Z,102160.30
2018-03-20T13:01:02.906Z,102160.73
2018-03-20T13:03:29.443Z,102171.66
2018-03-20T13:05:55.621Z,102173.83
2018-03-20T13:08:21.840Z,102171.12
2018-03-20T13:10:48.040Z,102171.98
2018-03-20T13:13:14.565Z,102179.85
2018-03-20T13:15:41.414Z,102177.62
2018-03-20T13:18:07.632Z,102176.66
2018-03-20T13:20:33.818Z,102176.11
2018-03-20T13:22:59.994Z,102177.83
2018-03-20T13:25:26.207Z,102175.17
2018-03-20T13:27:52.390Z,102178.23
2018-03-20T13:30:18.583Z,102177.30
2018-03-20T13:32:44.751Z,102181.70
2018-03-20T13:35:10.955Z,102183.83
2018-03-20T13:37:37.152Z,102186.91
2018-03-20T13:40:03.405Z,102194.78
2018-03-20T13:42:29.598Z,102188.16
2018-03-20T13:44:55.788Z,102192.87
2018-03-20T13:47:21.990Z,102191.89
2018-03-20T13:49:48.169Z,102194.46
2018-03-20T13:52:14.443Z,102204.48
2018-03-20T13:54:40.619Z,102198.30
2018-03-20T13:57:06.927Z,102201.36
2018-03-20T13:59:33.074Z,102203.08
2018-03-20T14:01:59.238Z,102209.63
2018-03-20T14:04:25.470Z,102205.66
2018-03-20T14:06:51.690Z,102211.28
2018-03-20T14:09:17.877Z,102213.41
2018-03-20T14:11:44.098Z,102212.02
2018-03-20T14:14:10.678Z,102218.52
2018-03-20T14:16:36.866Z,102220.98
2018-03-20T14:19:03.050Z,102222.34
2018-03-20T14:21:29.562Z,102226.41
2018-03-20T14:23:55.995Z,102220.41
2018-03-20T14:26:22.174Z,102224.27
2018-03-20T14:28:48.344Z,102217.73
2018-03-20T14:31:14.574Z,102226.55
2018-03-20T14:33:40.751Z,102227.50
2018-03-20T14:36:06.951Z,102235.75
2018-03-20T14:38:33.129Z,102233.03
2018-03-20T14:40:59.301Z,102232.55
2018-03-20T14:43:25.638Z,102231.77
2018-03-20T14:45:51.825Z,102235.06
2018-03-20T14:48:18.292Z,102229.73
2018-03-20T14:50:46.341Z,102237.53
2018-03-20T14:53:12.603Z,102239.55
2018-03-20T14:55:38.803Z,102241.31
2018-03-20T14:58:05.004Z,102248.27
2018-03-20T15:00:31.230Z,102246.23
2018-03-20T15:03:12.282Z,102250.20
2018-03-20T15:05:38.480Z,102257.65
2018-03-20T15:08:04.635Z,102248.22
2018-03-20T15:10:31.123Z,102261.78
2018-03-20T15:12:57.301Z,102255.08
2018-03-20T15:15:23.493Z,102256.39
2018-03-20T15:17:49.690Z,102264.15
2018-03-20T15:20:15.848Z,102268.38
2018-03-20T15:22:42.360Z,102270.14
2018-03-20T15:25:08.529Z,102272.94
2018-03-20T15:27:34.757Z,102275.74
2018-03-20T15:30:00.905Z,102275.35
2018-03-20T15:32:27.234Z,102282.72
2018-03-20T15:34:53.421Z,102281.73
2018-03-20T15:37:19.608Z,102285.00
2018-03-20T15:39:45.840Z,102284.68
2018-03-20T15:42:11.992Z,102289.84
2018-03-20T15:44:38.172Z,102282.55
2018-03-20T15:47:04.369Z,102281.62
2018-03-20T15:49:30.532Z,102291.78
2018-03-20T15:51:56.750Z,102289.64
2018-03-20T15:54:22.931Z,102289.80
2018-03-20T15:56:49.071Z,102299.00
2018-03-20T15:59:15.309Z,102301.58
2018-03-20T16:01:41.478Z,102309.23
2018-03-20T16:04:07.674Z,102310.47
2018-03-20T16:06:34.163Z,102308.57
2018-03-20T16:09:00.368Z,102310.89
2018-03-20T16:11:26.828Z,102317.22
2018-03-20T16:13:53.480Z,102322.01
2018-03-20T16:16:19.663Z,102325.17
2018-03-20T16:18:46.046Z,102315.50
2018-03-20T16:21:12.232Z,102331.19
2018-03-20T16:23:38.687Z,102336.75
2018-03-20T16:26:04.956Z,102339.25
2018-03-20T16:28:31.162Z,102339.06
2018-03-20T16:30:57.680Z,102344.02
2018-03-20T16:33:24.203Z,102345.52
2018-03-20T16:35:50.378Z,102350.08
2018-03-20T16:38:16.639Z,102351.13
2018-03-20T16:40:42.811Z,102354.93
2018-03-20T16:43:08.951Z,102370.61
2018-03-20T16:45:35.148Z,102370.86
2018-03-20T16:48:01.287Z,102375.44
2018-03-20T16:50:27.423Z,102382.63
2018-03-20T16:52:53.691Z,102379.30
2018-03-20T16:55:19.855Z,102380.06
2018-03-20T16:57:46.036Z,102385.25
2018-03-20T17:00:12.253Z,102389.48
2018-03-20T17:02:38.634Z,102388.80
2018-03-20T17:05:04.840Z,102392.53
2018-03-20T17:07:31.045Z,102395.31
2018-03-20T17:09:57.223Z,102389.24
2018-03-20T17:12:23.458Z,102399.95
2018-03-20T17:14:49.644Z,102402.33
2018-03-20T17:17:16.210Z,102404.28
2018-03-20T17:19:42.422Z,102400.51
2018-03-20T17:22:08.607Z,102405.53
2018-03-20T17:24:34.767Z,102406.57
2018-03-20T17:27:01.016Z,102413.35
2018-03-20T17:29:27.340Z,102418.42
2018-03-20T17:31:53.510Z,102418.19
2018-03-20T17:34:19.827Z,102421.81
2018-03-20T17:36:46.386Z,102430.29
2018-03-20T17:39:12.774Z,102428.20
2018-03-20T17:41:38.920Z,102429.59
2018-03-20T17:44:05.188Z,102430.13
2018-03-20T17:46:31.448Z,102432.41
2018-03-20T17:48:57.621Z,102438.67
2018-03-20T17:51:23.779Z,102444.47
2018-03-20T17:53:49.986Z,102445.85
2018-03-20T17:56:16.176Z,102445.05
2018-03-20T17:58:42.406Z,102451.70
2018-03-20T18:01:08.700Z,102453.95
2018-03-20T18:03:34.858Z,102460.56
2018-03-20T18:06:01.085Z,102461.47
2018-03-20T18:08:27.268Z,102468.53
2018-03-20T18:10:53.742Z,102476.95
2018-03-20T18:13:19.960Z,102469.11
2018-03-20T18:15:46.120Z,102477.50
2018-03-20T18:18:12.298Z,102488.05
2018-03-20T18:20:38.507Z,102488.51
2018-03-20T18:23:04.654Z,102495.58
2018-03-20T18:25:30.840Z,102503.08
2018-03-20T18:27:57.013Z,102502.67
2018-03-20T18:30:23.220Z,102496.58
2018-03-20T18:32:49.407Z,102497.50
2018-03-20T18:35:15.627Z,102506.31
2018-03-20T18:37:41.787Z,102503.73
2018-03-20T18:40:07.948Z,102502.84
2018-03-20T18:42:34.130Z,102502.45
2018-03-20T18:45:00.291Z,102511.29
2018-03-20T18:47:26.483Z,102516.58
2018-03-20T18:49:52.693Z,102520.55
2018-03-20T18:52:18.907Z,102521.03
2018-03-20T18:54:45.083Z,102527.19
2018-03-20T18:57:11.304Z,102522.80
2018-03-20T18:59:37.511Z,102527.22
2018-03-20T19:02:03.722Z,102518.91
2018-03-20T19:04:30.250Z,102518.88
2018-03-20T19:06:56.408Z,102522.44
2018-03-20T19:09:22.578Z,102518.94
2018-03-20T19:11:48.863Z,102525.09
2018-03-20T19:14:15.047Z,102523.78
2018-03-20T19:16:41.262Z,102531.70
2018-03-20T19:19:07.429Z,102533.45
2018-03-20T19:21:33.635Z,102528.67
2018-03-20T19:23:59.876Z,102530.41
2018-03-20T19:26:26.029Z,102529.98
2018-03-20T19:28:52.248Z,102531.33
2018-03-20T19:31:18.488Z,102530.88
2018-03-20T19:33:44.658Z,102536.19
2018-03-20T19:36:11.107Z,102544.93
2018-03-20T19:38:37.323Z,102544.08
2018-03-20T19:41:03.559Z,102546.25
2018-03-20T19:43:29.716Z,102547.58
2018-03-20T19:45:55.905Z,102554.14
2018-03-20T19:48:22.142Z,102549.34
2018-03-20T19:50:48.586Z,102548.03
2018-03-20T19:53:14.803Z,102551.55
2018-03-20T19:55:40.979Z,102549.36
2018-03-20T19:58:07.173Z,102551.98
2018-03-20T20:00:33.407Z,102556.38
2018-03-20T20:02:59.610Z,102553.29
2018-03-20T20:05:25.823Z,102560.73
2018-03-20T20:07:52.062Z,102559.00
2018-03-20T20:10:18.232Z,102560.72
2018-03-20T20:12:44.415Z,102560.31
2018-03-20T20:15:10.970Z,102567.77
2018-03-20T20:17:37.151Z,102573.44
2018-03-20T20:20:03.311Z,102577.83
2018-03-20T20:22:29.540Z,102580.02
2018-03-20T20:24:55.693Z,102587.46
2018-03-20T20:27:21.855Z,102584.39
2018-03-20T20:29:48.339Z,102586.18
2018-03-20T20:32:14.520Z,102588.83
2018-03-20T20:34:40.727Z,102586.19
2018-03-20T20:37:06.892Z,102591.45
2018-03-20T20:39:33.127Z,102593.67
2018-03-20T20:41:59.279Z,102597.61
2018-03-20T20:44:25.450Z,102594.55
2018-03-20T20:46:51.634Z,102593.67
2018-03-20T20:49:17.835Z,102598.47
2018-03-20T20:51:43.998Z,102604.17
2018-03-20T20:54:10.212Z,102600.23
2018-03-20T20:56:36.399Z,102601.55
2018-03-20T20:59:02.576Z,102607.70
2018-03-20T21:01:28.784Z,102608.60
2018-03-20T21:03:54.963Z,102599.37
2018-03-20T21:06:21.161Z,102602.91
2018-03-20T21:08:47.886Z,102606.84
2018-03-20T21:11:14.166Z,102603.80
2018-03-20T21:13:40.385Z,102609.48
2018-03-20T21:16:06.875Z,102611.23
2018-03-20T21:18:33.311Z,102616.48
2018-03-20T21:20:59.517Z,102609.03
2018-03-20T21:23:25.691Z,102610.77
2018-03-20T21:25:51.871Z,102612.55
2018-03-20T21:28:18.072Z,102610.78
2018-03-20T21:30:44.283Z,102607.72
2018-03-20T21:33:10.505Z,102611.66
2018-03-20T21:35:36.687Z,102618.66
2018-03-20T21:38:02.872Z,102619.55
2018-03-20T21:40:29.013Z,102619.55
2018-03-20T21:42:55.323Z,102620.84
2018-03-20T21:45:21.494Z,102623.92
2018-03-20T21:47:47.649Z,102616.50
2018-03-20T21:50:13.833Z,102619.99
2018-03-20T21:52:40.011Z,102617.36
2018-03-20T21:55:06.214Z,102620.88
2018-03-20T21:57:32.541Z,102619.13
2018-03-20T21:59:58.787Z,102622.17
2018-03-20T22:02:25.516Z,102625.68
2018-03-20T22:04:51.671Z,102618.27
2018-03-20T22:07:17.858Z,102624.80
2018-03-20T22:09:44.030Z,102627.02
2018-03-20T22:12:10.224Z,102625.27
2018-03-20T22:14:36.582Z,102627.89
2018-03-20T22:17:02.906Z,102628.77
2018-03-20T22:19:29.205Z,102630.97
2018-03-20T22:21:55.411Z,102631.84
2018-03-20T22:24:21.628Z,102632.29
2018-03-20T22:26:47.797Z,102631.83
2018-03-20T22:29:13.986Z,102637.56
2018-03-20T22:31:40.562Z,102640.61
2018-03-20T22:34:07.001Z,102638.43
2018-03-20T22:36:33.196Z,102632.72
2018-03-20T22:38:59.636Z,102640.60
2018-03-20T22:41:26.192Z,102644.11
2018-03-20T22:43:52.478Z,102643.23
2018-03-20T22:46:19.162Z,102648.06
2018-03-20T22:48:46.133Z,102640.61
2018-03-20T22:51:13.829Z,102642.38
2018-03-20T22:53:40.300Z,102644.13
2018-03-20T22:56:06.678Z,102641.92
2018-03-20T22:58:32.875Z,102646.75
2018-03-20T23:00:59.097Z,102641.05
2018-03-20T23:03:25.554Z,102650.67
2018-03-20T23:05:51.915Z,102655.08
2018-03-20T23:08:18.077Z,102652.89
2018-03-20T23:10:44.411Z,102652.02
2018-03-20T23:13:11.382Z,102658.58
2018-03-20T23:15:37.863Z,102657.27
2018-03-20T23:20:36.854Z,102659.47
2018-03-20T23:23:03.036Z,102656.81
2018-03-20T23:25:29.275Z,102656.81
2018-03-20T23:27:55.519Z,102655.09
2018-03-20T23:30:21.731Z,102653.77
2018-03-20T23:32:47.899Z,102645.84
2018-03-20T23:35:14.087Z,102657.23
2018-03-20T23:37:40.259Z,102655.94
2018-03-20T23:40:06.464Z,102660.31
2018-03-20T23:42:32.630Z,102657.68
2018-03-20T23:44:58.804Z,102658.99
2018-03-20T23:47:25.000Z,102664.68
2018-03-20T23:49:51.239Z,102667.30
2018-03-20T23:52:17.423Z,102674.33
2018-03-20T23:54:43.642Z,102680.42
2018-03-20T23:57:09.849Z,102676.05
2018-03-20T23:59:36.027Z,102677.80
